Hauptseite
METAR-TAF:

METAR-TAF

Flughäfen :

Flughafen Esbjerg

Esbjerg, Dänemark

Breite: 55-32N, Länge: 008-34E, Höhe: 30 m

Beobachtung

Neuester Wetterbericht von vor 31 Minuten, um 18:50 UTC
Wind 7 kt aus Südwest
Temperatur 15°C
Luftfeuchtigkeit 82%
Luftdruck 1015 hPa
Sichtweite 10 km oder mehr

METAR: EKEB 231850Z AUTO 22007KT 9999 NCD 15/12 Q1015

Zeit: 21:21 (19:21 UTC)

Prognose

Neuester Wetterbericht von vor 2 Stunden und 11 Minuten, um 17:10 UTC
Gültige Prognose vom 23 um 18 UTC bis 23 um 22 UTC
Wind 8 kt aus West/Südwest
Sichtweite 10 km oder mehr
Durchbrochene Bewölkung in der Höhe von 1300 ft
Zeitweise
vom 23 um 18 UTC bis 23 um 22 UTC
Aufgelockert bewölkt in der Höhe von 1300 ft

TAF: EKEB 231710Z 2318/2322 24008KT 9999 BKN013 TEMPO 2318/2322 SCT013

Wetterbeobachtungen und Prognosen von mehr als 4000 Flughäfen (METAR und TAF Bericht).

Die verfügbaren Stationen werden durch gelbe und rote Markierungen auf der Karte dargestellt.

Führen Sie die Maus auf sie, um den Namen der Station zu sehen.

Darauf klicken, um die Beobachtung von Wetterbeobachtungen und Prognosen zu sehen.

Um die Karte zu ändern : klicken Sie auf den grünen Tasten mit einem schwarzen Kreuz Zum Vergrößern, auf den grünen Button mit einem Gedankenstrich zu verkleinern, oder auf die grünen Pfeile für benachbarte Karten.


METAR-TAF: